createdAt,value
2018-03-28T00:00:24.727Z,8.88
2018-03-28T00:01:24.712Z,8.93
2018-03-28T00:02:24.703Z,8.91
2018-03-28T00:03:24.687Z,8.89
2018-03-28T00:04:24.677Z,8.89
2018-03-28T00:05:24.660Z,8.98
2018-03-28T00:06:24.651Z,9.03
2018-03-28T00:07:24.641Z,8.97
2018-03-28T00:08:24.619Z,8.97
2018-03-28T00:09:24.611Z,8.82
2018-03-28T00:10:24.592Z,8.86
2018-03-28T00:11:24.585Z,8.94
2018-03-28T00:12:24.573Z,8.98
2018-03-28T00:13:24.555Z,8.88
2018-03-28T00:14:24.546Z,8.86
2018-03-28T00:15:24.527Z,8.85
2018-03-28T00:16:24.513Z,8.96
2018-03-28T00:17:24.501Z,8.89
2018-03-28T00:18:24.487Z,8.96
2018-03-28T00:19:24.481Z,8.93
2018-03-28T00:20:24.461Z,8.89
2018-03-28T00:21:24.454Z,8.97
2018-03-28T00:22:24.446Z,8.93
2018-03-28T00:23:24.427Z,8.93
2018-03-28T00:24:24.406Z,8.80
2018-03-28T00:25:24.398Z,8.89
2018-03-28T00:26:24.388Z,8.91
2018-03-28T00:27:24.370Z,8.80
2018-03-28T00:28:24.361Z,8.80
2018-03-28T00:29:24.348Z,8.68
2018-03-28T00:30:24.336Z,8.76
2018-03-28T00:31:24.321Z,8.88
2018-03-28T00:32:24.301Z,8.89
2018-03-28T00:33:24.287Z,8.73
2018-03-28T00:34:24.273Z,8.85
2018-03-28T00:35:24.271Z,8.86
2018-03-28T00:36:24.251Z,8.83
2018-03-28T00:37:24.237Z,8.89
2018-03-28T00:38:24.228Z,8.91
2018-03-28T00:39:24.216Z,8.93
2018-03-28T00:40:24.200Z,8.91
2018-03-28T00:41:24.181Z,8.88
2018-03-28T00:42:24.239Z,8.96
2018-03-28T00:43:24.163Z,8.91
2018-03-28T00:44:24.149Z,8.94
2018-03-28T00:45:24.131Z,8.96
2018-03-28T00:46:24.115Z,8.89
2018-03-28T00:47:24.101Z,9.04
2018-03-28T00:48:24.089Z,8.93
2018-03-28T00:49:24.078Z,8.83
2018-03-28T00:50:24.069Z,8.93
2018-03-28T00:51:24.054Z,8.80
2018-03-28T00:52:24.043Z,8.88
2018-03-28T00:53:24.024Z,8.86
2018-03-28T00:54:24.009Z,8.89
2018-03-28T00:55:23.996Z,8.91
2018-03-28T00:56:23.988Z,9.04
2018-03-28T00:57:23.970Z,9.01
2018-03-28T00:58:23.957Z,8.97
2018-03-28T00:59:23.943Z,8.94
2018-03-28T01:00:23.931Z,8.97
2018-03-28T01:01:23.916Z,8.97
2018-03-28T01:02:23.906Z,9.00
2018-03-28T01:03:23.891Z,8.98
2018-03-28T01:04:23.886Z,8.97
2018-03-28T01:05:23.864Z,9.01
2018-03-28T01:06:23.849Z,8.98
2018-03-28T01:07:23.836Z,8.94
2018-03-28T01:08:23.823Z,8.91
2018-03-28T01:09:23.819Z,8.96
2018-03-28T01:10:23.797Z,8.89
2018-03-28T01:11:23.786Z,8.85
2018-03-28T01:12:23.775Z,8.93
2018-03-28T01:13:23.757Z,8.89
2018-03-28T01:14:23.745Z,8.91
2018-03-28T01:15:23.738Z,8.94
2018-03-28T01:16:23.716Z,8.98
2018-03-28T01:17:23.704Z,8.93
2018-03-28T01:18:23.695Z,8.96
2018-03-28T01:19:23.678Z,8.88
2018-03-28T01:20:23.664Z,8.93
2018-03-28T01:21:23.649Z,8.89
2018-03-28T01:22:23.638Z,8.93
2018-03-28T01:23:23.623Z,8.93
2018-03-28T01:24:23.609Z,8.86
2018-03-28T01:25:23.602Z,8.78
2018-03-28T01:26:23.585Z,8.80
2018-03-28T01:27:23.573Z,8.82
2018-03-28T01:28:23.560Z,8.83
2018-03-28T01:29:23.550Z,8.76
2018-03-28T01:30:23.542Z,8.83
2018-03-28T01:31:23.517Z,8.94
2018-03-28T01:32:23.511Z,8.94
2018-03-28T01:33:23.495Z,8.86
2018-03-28T01:34:23.478Z,8.86
2018-03-28T01:35:23.471Z,8.91
2018-03-28T01:36:23.452Z,9.00
2018-03-28T01:37:23.445Z,8.96
2018-03-28T01:38:23.431Z,9.00
2018-03-28T01:39:23.413Z,9.06
2018-03-28T01:40:23.401Z,9.12
2018-03-28T01:41:23.386Z,9.04
2018-03-28T01:42:23.380Z,8.96
2018-03-28T01:43:23.412Z,9.01
2018-03-28T01:44:23.351Z,8.98
2018-03-28T01:45:23.333Z,8.96
2018-03-28T01:46:23.319Z,9.00
2018-03-28T01:47:23.308Z,9.00
2018-03-28T01:48:23.294Z,9.03
2018-03-28T01:49:23.279Z,9.01
2018-03-28T01:50:23.278Z,9.03
2018-03-28T01:51:23.271Z,9.13
2018-03-28T01:52:23.242Z,9.00
2018-03-28T01:53:23.233Z,9.01
2018-03-28T01:54:23.213Z,8.98
2018-03-28T01:55:23.201Z,9.08
2018-03-28T01:56:23.188Z,9.08
2018-03-28T01:57:23.180Z,9.10
2018-03-28T01:58:23.163Z,9.22
2018-03-28T01:59:23.154Z,9.12
2018-03-28T02:00:23.141Z,9.12
2018-03-28T02:01:23.124Z,8.98
2018-03-28T02:02:23.108Z,8.97
2018-03-28T02:03:23.095Z,9.03
2018-03-28T02:04:23.083Z,9.10
2018-03-28T02:05:23.081Z,9.17
2018-03-28T02:06:23.055Z,9.12
2018-03-28T02:07:23.043Z,9.12
2018-03-28T02:08:23.036Z,9.10
2018-03-28T02:09:23.019Z,9.13
2018-03-28T02:10:23.004Z,9.06
2018-03-28T02:11:22.991Z,9.20
2018-03-28T02:12:22.976Z,9.12
2018-03-28T02:13:22.965Z,9.13
2018-03-28T02:14:22.956Z,9.13
2018-03-28T02:15:22.939Z,9.16
2018-03-28T02:16:22.924Z,9.16
2018-03-28T02:17:22.912Z,9.22
2018-03-28T02:18:22.896Z,9.19
2018-03-28T02:19:22.892Z,9.20
2018-03-28T02:20:22.874Z,9.23
2018-03-28T02:21:22.858Z,9.23
2018-03-28T02:22:22.855Z,9.23
2018-03-28T02:23:22.838Z,9.16
2018-03-28T02:24:22.820Z,9.23
2018-03-28T02:25:22.807Z,9.19
2018-03-28T02:26:22.794Z,9.24
2018-03-28T02:27:22.779Z,9.20
2018-03-28T02:28:22.766Z,9.23
2018-03-28T02:29:22.760Z,9.24
2018-03-28T02:30:22.743Z,9.20
2018-03-28T02:31:22.734Z,9.31
2018-03-28T02:32:22.720Z,9.26
2018-03-28T02:33:22.709Z,9.24
2018-03-28T02:34:22.686Z,9.30
2018-03-28T02:35:22.675Z,9.16
2018-03-28T02:36:22.662Z,9.23
2018-03-28T02:37:22.651Z,9.23
2018-03-28T02:38:22.635Z,9.16
2018-03-28T02:39:22.631Z,9.15
2018-03-28T02:40:22.613Z,9.13
2018-03-28T02:41:22.600Z,9.20
2018-03-28T02:42:22.582Z,9.23
2018-03-28T02:43:22.575Z,9.27
2018-03-28T02:44:22.557Z,9.22
2018-03-28T02:45:22.551Z,9.24
2018-03-28T02:46:22.534Z,9.17
2018-03-28T02:47:22.518Z,9.23
2018-03-28T02:48:22.511Z,9.15
2018-03-28T02:49:22.493Z,9.27
2018-03-28T02:50:22.485Z,9.26
2018-03-28T02:51:22.466Z,9.31
2018-03-28T02:52:22.454Z,9.32
2018-03-28T02:53:22.441Z,9.30
2018-03-28T02:54:22.442Z,9.31
2018-03-28T02:55:22.420Z,9.30
2018-03-28T02:56:22.405Z,9.31
2018-03-28T02:57:22.388Z,9.31
2018-03-28T02:58:22.377Z,9.37
2018-03-28T02:59:22.370Z,9.40
2018-03-28T03:00:22.348Z,9.35
2018-03-28T03:01:22.336Z,9.34
2018-03-28T03:02:22.327Z,9.30
2018-03-28T03:03:22.313Z,9.30
2018-03-28T03:04:22.305Z,9.30
2018-03-28T03:05:22.284Z,9.27
2018-03-28T03:06:22.272Z,9.34
2018-03-28T03:07:22.267Z,9.31
2018-03-28T03:08:22.245Z,9.26
2018-03-28T03:09:22.236Z,9.32
2018-03-28T03:10:22.219Z,9.32
2018-03-28T03:11:22.206Z,9.32
2018-03-28T03:12:22.198Z,9.23
2018-03-28T03:13:22.188Z,9.27
2018-03-28T03:14:22.168Z,9.24
2018-03-28T03:15:22.155Z,9.20
2018-03-28T03:16:22.144Z,9.32
2018-03-28T03:17:22.132Z,9.32
2018-03-28T03:18:22.118Z,9.31
2018-03-28T03:19:22.111Z,9.31
2018-03-28T03:20:22.092Z,9.35
2018-03-28T03:21:22.083Z,9.48
2018-03-28T03:22:22.076Z,9.38
2018-03-28T03:23:22.052Z,9.42
2018-03-28T03:24:22.039Z,9.42
2018-03-28T03:25:22.033Z,9.41
2018-03-28T03:26:22.021Z,9.40
2018-03-28T03:27:22.002Z,9.40
2018-03-28T03:28:21.987Z,9.37
2018-03-28T03:29:21.983Z,9.27
2018-03-28T03:30:21.963Z,9.38
2018-03-28T03:31:21.960Z,9.31
2018-03-28T03:32:21.943Z,9.26
2018-03-28T03:33:21.931Z,9.26
2018-03-28T03:34:21.909Z,9.31
2018-03-28T03:35:21.901Z,9.37
2018-03-28T03:36:21.883Z,9.32
2018-03-28T03:37:21.871Z,9.40
2018-03-28T03:38:21.862Z,9.27
2018-03-28T03:39:21.844Z,9.31
2018-03-28T03:40:21.833Z,9.38
2018-03-28T03:41:21.828Z,9.37
2018-03-28T03:42:21.814Z,9.35
2018-03-28T03:43:21.799Z,9.37
2018-03-28T03:44:21.780Z,9.30
2018-03-28T03:45:21.777Z,9.32
2018-03-28T03:46:21.754Z,9.40
2018-03-28T03:47:21.750Z,9.38
2018-03-28T03:48:21.734Z,9.38
2018-03-28T03:49:21.717Z,9.45
2018-03-28T03:50:21.704Z,9.44
2018-03-28T03:51:21.695Z,9.48
2018-03-28T03:52:21.679Z,9.49
2018-03-28T03:53:21.668Z,9.48
2018-03-28T03:54:21.702Z,9.44
2018-03-28T03:55:21.649Z,9.44
2018-03-28T03:56:21.626Z,9.44
2018-03-28T03:57:21.614Z,9.41
2018-03-28T03:58:21.601Z,9.37
2018-03-28T03:59:21.589Z,9.40
2018-03-28T04:00:21.577Z,9.40
2018-03-28T04:01:21.573Z,9.32
2018-03-28T04:02:21.556Z,9.42
2018-03-28T04:03:21.545Z,9.40
2018-03-28T04:04:21.524Z,9.49
2018-03-28T04:05:21.511Z,9.40
2018-03-28T04:06:21.499Z,9.37
2018-03-28T04:07:21.493Z,9.37
2018-03-28T04:08:21.473Z,9.42
2018-03-28T04:09:21.468Z,9.40
2018-03-28T04:10:21.446Z,9.40
2018-03-28T04:11:21.438Z,9.35
2018-03-28T04:12:21.423Z,9.34
2018-03-28T04:13:21.412Z,9.37
2018-03-28T04:14:21.396Z,9.31
2018-03-28T04:15:21.385Z,9.27
2018-03-28T04:16:21.378Z,9.23
2018-03-28T04:17:21.361Z,9.34
2018-03-28T04:18:21.347Z,9.27
2018-03-28T04:19:21.333Z,9.38
2018-03-28T04:20:21.326Z,9.24
2018-03-28T04:21:21.308Z,9.26
2018-03-28T04:22:21.305Z,9.31
2018-03-28T04:23:21.283Z,9.30
2018-03-28T04:24:21.269Z,9.24
2018-03-28T04:25:21.264Z,9.26
2018-03-28T04:26:21.244Z,9.32
2018-03-28T04:27:21.233Z,9.31
2018-03-28T04:28:21.224Z,9.26
2018-03-28T04:29:21.212Z,9.30
2018-03-28T04:30:21.197Z,9.31
2018-03-28T04:31:21.183Z,9.24
2018-03-28T04:32:21.168Z,9.26
2018-03-28T04:33:21.155Z,9.13
2018-03-28T04:34:21.141Z,9.23
2018-03-28T04:35:21.139Z,9.17
2018-03-28T04:36:21.116Z,9.22
2018-03-28T04:37:21.104Z,9.31
2018-03-28T04:38:21.090Z,9.24
2018-03-28T04:39:21.080Z,9.30
2018-03-28T04:40:21.097Z,9.32
2018-03-28T04:41:21.059Z,9.24
2018-03-28T04:42:21.041Z,9.27
2018-03-28T04:43:21.034Z,9.23
2018-03-28T04:44:21.014Z,9.16
2018-03-28T04:45:21.009Z,9.17
2018-03-28T04:46:20.989Z,9.16
2018-03-28T04:47:20.987Z,9.20
2018-03-28T04:48:20.964Z,9.12
2018-03-28T04:49:20.957Z,9.12
2018-03-28T04:50:20.944Z,9.20
2018-03-28T04:51:20.925Z,9.20
2018-03-28T04:52:20.917Z,9.22
2018-03-28T04:53:20.911Z,9.23
2018-03-28T04:54:20.894Z,9.23
2018-03-28T04:55:20.875Z,9.31
2018-03-28T04:56:20.862Z,9.26
2018-03-28T04:57:20.857Z,9.27
2018-03-28T04:58:20.836Z,9.24
2018-03-28T04:59:20.835Z,9.32
2018-03-28T05:00:20.816Z,9.30
2018-03-28T05:01:20.801Z,9.30
2018-03-28T05:02:20.785Z,9.17
2018-03-28T05:03:20.776Z,9.34
2018-03-28T05:04:20.774Z,9.24
2018-03-28T05:05:20.756Z,9.23
2018-03-28T05:06:20.740Z,9.27
2018-03-28T05:07:20.726Z,9.23
2018-03-28T05:08:20.718Z,9.20
2018-03-28T05:09:20.704Z,9.23
2018-03-28T05:10:20.728Z,9.16
2018-03-28T05:11:20.673Z,9.15
2018-03-28T05:12:20.660Z,9.17
2018-03-28T05:13:20.646Z,9.19
2018-03-28T05:14:20.635Z,9.20
2018-03-28T05:15:20.627Z,9.16
2018-03-28T05:16:20.609Z,9.13
2018-03-28T05:17:20.595Z,9.06
2018-03-28T05:18:20.588Z,9.16
2018-03-28T05:19:20.569Z,9.12
2018-03-28T05:20:20.606Z,9.13
2018-03-28T05:21:20.546Z,9.10
2018-03-28T05:22:20.533Z,9.15
2018-03-28T05:23:20.529Z,9.19
2018-03-28T05:24:20.513Z,9.20
2018-03-28T05:25:20.492Z,9.16
2018-03-28T05:26:20.485Z,9.06
2018-03-28T05:27:20.473Z,9.10
2018-03-28T05:28:20.455Z,9.16
2018-03-28T05:29:20.455Z,9.20
2018-03-28T05:30:20.433Z,9.16
2018-03-28T05:31:20.420Z,9.20
2018-03-28T05:32:20.429Z,9.23
2018-03-28T05:33:20.409Z,9.16
2018-03-28T05:34:20.392Z,9.24
2018-03-28T05:35:20.380Z,9.20
2018-03-28T05:36:20.355Z,9.17
2018-03-28T05:37:20.341Z,9.20
2018-03-28T05:38:20.328Z,9.31
2018-03-28T05:39:20.319Z,9.17
2018-03-28T05:40:20.313Z,9.30
2018-03-28T05:41:20.292Z,9.24
2018-03-28T05:42:20.279Z,9.24
2018-03-28T05:43:20.272Z,9.23
2018-03-28T05:44:20.253Z,9.22
2018-03-28T05:45:20.241Z,9.23
2018-03-28T05:46:20.233Z,9.26
2018-03-28T05:47:20.215Z,9.30
2018-03-28T05:48:20.204Z,9.26
2018-03-28T05:49:20.198Z,9.30
2018-03-28T05:50:20.241Z,9.32
2018-03-28T05:51:20.171Z,9.19
2018-03-28T05:52:20.156Z,9.15
2018-03-28T05:53:20.146Z,9.24
2018-03-28T05:54:20.134Z,9.20
2018-03-28T05:55:20.116Z,9.31
2018-03-28T05:56:20.106Z,9.27
2018-03-28T05:57:20.091Z,9.35
2018-03-28T05:58:20.082Z,9.31
2018-03-28T05:59:20.065Z,9.32
2018-03-28T06:00:20.054Z,9.35
2018-03-28T06:01:20.041Z,9.40
2018-03-28T06:02:20.036Z,9.37
2018-03-28T06:03:20.016Z,9.42
2018-03-28T06:04:20.001Z,9.34
2018-03-28T06:05:19.987Z,9.48
2018-03-28T06:06:19.974Z,9.41
2018-03-28T06:07:19.973Z,9.44
2018-03-28T06:08:19.954Z,9.45
2018-03-28T06:09:19.938Z,9.37
2018-03-28T06:10:19.922Z,9.37
2018-03-28T06:11:19.912Z,9.44
2018-03-28T06:12:19.900Z,9.50
2018-03-28T06:13:19.886Z,9.48
2018-03-28T06:14:19.877Z,9.49
2018-03-28T06:15:19.860Z,9.50
2018-03-28T06:16:19.848Z,9.50
2018-03-28T06:17:19.843Z,9.42
2018-03-28T06:18:19.822Z,9.40
2018-03-28T06:19:19.812Z,9.34
2018-03-28T06:20:19.797Z,9.38
2018-03-28T06:21:19.786Z,9.48
2018-03-28T06:22:19.773Z,9.44
2018-03-28T06:23:19.764Z,9.40
2018-03-28T06:24:19.750Z,9.40
2018-03-28T06:25:19.738Z,9.40
2018-03-28T06:26:19.727Z,9.41
2018-03-28T06:27:19.713Z,9.42
2018-03-28T06:28:19.704Z,9.44
2018-03-28T06:29:19.691Z,9.44
2018-03-28T06:30:19.675Z,9.50
2018-03-28T06:31:19.672Z,9.48
2018-03-28T06:32:19.653Z,9.50
2018-03-28T06:33:19.634Z,9.48
2018-03-28T06:34:19.630Z,9.50
2018-03-28T06:35:19.608Z,9.55
2018-03-28T06:36:19.599Z,9.48
2018-03-28T06:37:19.584Z,9.48
2018-03-28T06:38:19.577Z,9.49
2018-03-28T06:39:19.559Z,9.52
2018-03-28T06:40:19.553Z,9.49
2018-03-28T06:41:19.535Z,9.49
2018-03-28T06:42:19.522Z,9.50
2018-03-28T06:43:19.511Z,9.48
2018-03-28T06:44:19.498Z,9.56
2018-03-28T06:45:19.486Z,9.55
2018-03-28T06:46:19.476Z,9.59
2018-03-28T06:47:19.517Z,9.56
2018-03-28T06:48:19.454Z,9.45
2018-03-28T06:49:19.435Z,9.59
2018-03-28T06:50:19.422Z,9.56
2018-03-28T06:51:19.410Z,9.50
2018-03-28T06:52:19.405Z,9.56
2018-03-28T06:53:19.385Z,9.62
2018-03-28T06:54:19.372Z,9.70
2018-03-28T06:55:19.367Z,9.68
2018-03-28T06:56:19.357Z,9.65
2018-03-28T06:57:19.338Z,9.71
2018-03-28T06:58:19.330Z,9.73
2018-03-28T06:59:19.314Z,9.74
2018-03-28T07:00:19.302Z,9.75
2018-03-28T07:01:19.288Z,9.86
2018-03-28T07:02:19.281Z,9.81
2018-03-28T07:03:19.262Z,9.80
2018-03-28T07:04:19.249Z,9.86
2018-03-28T07:05:19.239Z,9.83
2018-03-28T07:06:19.224Z,9.85
2018-03-28T07:07:19.278Z,9.81
2018-03-28T07:08:19.201Z,9.77
2018-03-28T07:09:19.194Z,9.78
2018-03-28T07:10:19.178Z,9.81
2018-03-28T07:11:19.170Z,9.88
2018-03-28T07:12:19.159Z,9.91
2018-03-28T07:13:19.146Z,9.99
2018-03-28T07:14:19.126Z,9.96
2018-03-28T07:15:19.115Z,9.98
2018-03-28T07:16:19.110Z,9.95
2018-03-28T07:17:19.090Z,9.83
2018-03-28T07:18:19.084Z,9.95
2018-03-28T07:19:19.066Z,9.98
2018-03-28T07:20:19.064Z,9.98
2018-03-28T07:21:19.045Z,9.89
2018-03-28T07:22:19.029Z,9.96
2018-03-28T07:23:19.017Z,9.98
2018-03-28T07:24:19.012Z,9.95
2018-03-28T07:25:18.996Z,9.98
2018-03-28T07:26:18.980Z,9.92
2018-03-28T07:27:18.982Z,9.96
2018-03-28T07:28:18.958Z,9.92
2018-03-28T07:29:18.946Z,9.96
2018-03-28T07:30:18.937Z,10.04
2018-03-28T07:31:18.922Z,9.86
2018-03-28T07:32:18.911Z,9.89
2018-03-28T07:33:18.900Z,9.86
2018-03-28T07:34:18.939Z,9.88
2018-03-28T07:35:18.882Z,9.95
2018-03-28T07:36:18.864Z,9.92
2018-03-28T07:37:18.850Z,9.85
2018-03-28T07:38:18.836Z,9.93
2018-03-28T07:39:18.826Z,9.91
2018-03-28T07:40:18.816Z,9.92
2018-03-28T07:41:18.801Z,9.98
2018-03-28T07:42:18.788Z,9.91
2018-03-28T07:43:18.778Z,9.89
2018-03-28T07:44:18.765Z,9.93
2018-03-28T07:45:18.758Z,9.95
2018-03-28T07:46:18.743Z,9.91
2018-03-28T07:47:18.730Z,9.95
2018-03-28T07:48:18.723Z,9.88
2018-03-28T07:49:18.710Z,9.91
2018-03-28T07:50:18.695Z,9.91
2018-03-28T07:51:18.682Z,9.98
2018-03-28T07:52:18.674Z,9.92
2018-03-28T07:53:18.660Z,9.89
2018-03-28T07:54:18.647Z,9.93
2018-03-28T07:55:18.641Z,9.98
2018-03-28T07:56:18.636Z,10.04
2018-03-28T07:57:18.622Z,9.99
2018-03-28T07:58:18.613Z,9.99
2018-03-28T07:59:18.587Z,9.99
2018-03-28T08:00:18.580Z,9.96
2018-03-28T08:01:18.565Z,10.04
2018-03-28T08:02:18.554Z,10.10
2018-03-28T08:03:18.543Z,10.07
2018-03-28T08:04:18.534Z,10.02
2018-03-28T08:05:18.521Z,10.14
2018-03-28T08:06:18.508Z,10.11
2018-03-28T08:07:18.493Z,10.26
2018-03-28T08:08:18.479Z,10.29
2018-03-28T08:09:18.468Z,10.29
2018-03-28T08:10:18.458Z,10.28
2018-03-28T08:11:18.444Z,10.24
2018-03-28T08:12:18.436Z,10.28
2018-03-28T08:13:18.427Z,10.32
2018-03-28T08:14:18.409Z,10.31
2018-03-28T08:15:18.400Z,10.28
2018-03-28T08:16:18.388Z,10.32
2018-03-28T08:17:18.384Z,10.29
2018-03-28T08:18:18.367Z,10.32
2018-03-28T08:19:18.350Z,10.31
2018-03-28T08:20:18.339Z,10.34
2018-03-28T08:21:18.330Z,10.28
2018-03-28T08:22:18.315Z,10.44
2018-03-28T08:23:18.304Z,10.32
2018-03-28T08:24:18.293Z,10.29
2018-03-28T08:25:18.283Z,10.43
2018-03-28T08:26:18.307Z,10.44
2018-03-28T08:27:18.258Z,10.36
2018-03-28T08:28:18.245Z,10.36
2018-03-28T08:29:18.239Z,10.36
2018-03-28T08:30:18.220Z,10.34
2018-03-28T08:31:18.209Z,10.44
2018-03-28T08:32:18.202Z,10.36
2018-03-28T08:33:18.189Z,10.44
2018-03-28T08:34:18.175Z,10.38
2018-03-28T08:35:18.164Z,10.36
2018-03-28T08:36:18.153Z,10.49
2018-03-28T08:37:18.140Z,10.51
2018-03-28T08:38:18.131Z,10.55
2018-03-28T08:39:18.161Z,10.62
2018-03-28T08:40:18.107Z,10.86
2018-03-28T08:41:18.095Z,10.95
2018-03-28T08:42:18.090Z,11.05
2018-03-28T08:43:18.077Z,11.03
2018-03-28T08:44:18.061Z,11.19
2018-03-28T08:45:18.052Z,11.23
2018-03-28T08:46:18.042Z,11.24
2018-03-28T08:47:18.028Z,11.27
2018-03-28T08:48:18.019Z,11.31
2018-03-28T08:49:18.011Z,11.38
2018-03-28T08:50:17.992Z,11.39
2018-03-28T08:51:18.000Z,11.36
2018-03-28T08:52:17.983Z,11.39
2018-03-28T08:53:17.957Z,11.36
2018-03-28T08:54:17.946Z,11.38
2018-03-28T08:55:17.936Z,11.42
2018-03-28T08:56:17.922Z,11.41
2018-03-28T08:57:17.917Z,11.44
2018-03-28T08:58:17.905Z,11.44
2018-03-28T08:59:17.890Z,11.54
2018-03-28T09:00:17.888Z,11.63
2018-03-28T09:01:17.878Z,11.56
2018-03-28T09:02:17.857Z,11.64
2018-03-28T09:03:17.846Z,11.64
2018-03-28T09:04:17.841Z,11.69
2018-03-28T09:05:17.845Z,11.81
2018-03-28T09:06:17.814Z,11.93
2018-03-28T09:07:17.817Z,11.90
2018-03-28T09:08:17.799Z,11.88
2018-03-28T09:09:17.796Z,11.90
2018-03-28T09:10:17.775Z,12.00
2018-03-28T09:11:17.762Z,12.08
2018-03-28T09:12:17.749Z,12.13
2018-03-28T09:13:17.738Z,12.16
2018-03-28T09:14:17.727Z,12.21
2018-03-28T09:15:17.722Z,12.16
2018-03-28T09:16:17.709Z,12.23
2018-03-28T09:17:17.695Z,12.34
2018-03-28T09:18:17.694Z,12.33
2018-03-28T09:19:17.679Z,12.49
2018-03-28T09:20:17.663Z,12.61
2018-03-28T09:21:17.659Z,12.62
2018-03-28T09:22:17.644Z,12.69
2018-03-28T09:23:17.632Z,12.76
2018-03-28T09:24:17.629Z,12.80
2018-03-28T09:25:17.614Z,12.87
2018-03-28T09:26:17.606Z,12.94
2018-03-28T09:27:17.590Z,12.98
2018-03-28T09:28:17.587Z,13.12
2018-03-28T09:29:17.578Z,13.10
2018-03-28T09:30:17.565Z,13.10
2018-03-28T09:31:17.556Z,13.10
2018-03-28T09:32:17.540Z,13.16
2018-03-28T09:33:17.532Z,13.24
2018-03-28T09:34:17.543Z,13.25
2018-03-28T09:35:17.521Z,13.21
2018-03-28T09:36:17.509Z,13.13
2018-03-28T09:37:17.496Z,13.07
2018-03-28T09:38:17.482Z,13.21
2018-03-28T09:39:17.473Z,13.19
2018-03-28T09:40:17.462Z,13.19
2018-03-28T09:41:17.458Z,13.25
2018-03-28T09:42:17.443Z,13.35
2018-03-28T09:43:17.432Z,13.35
2018-03-28T09:44:17.424Z,13.36
2018-03-28T09:45:17.416Z,13.53
2018-03-28T09:46:17.446Z,13.57
2018-03-28T09:47:17.395Z,13.68
2018-03-28T09:48:17.387Z,13.71
2018-03-28T09:49:17.376Z,13.76
2018-03-28T09:50:17.366Z,13.86
2018-03-28T09:51:17.363Z,13.98
2018-03-28T09:52:17.348Z,14.04
2018-03-28T09:53:17.348Z,14.06
2018-03-28T09:54:17.335Z,14.23
2018-03-28T09:55:17.326Z,14.17
2018-03-28T09:56:17.310Z,14.20
2018-03-28T09:57:17.301Z,14.12
2018-03-28T21:46:48.172Z,10.38
2018-03-28T21:47:48.096Z,10.35
2018-03-28T21:48:48.070Z,10.36
2018-03-28T21:49:48.046Z,10.38
2018-03-28T21:50:48.025Z,10.35
2018-03-28T21:51:48.012Z,10.29
2018-03-28T21:52:48.007Z,10.42
2018-03-28T21:53:47.995Z,10.26
2018-03-28T21:54:47.975Z,10.38
2018-03-28T21:55:47.960Z,10.32
2018-03-28T21:56:47.945Z,10.35
2018-03-28T21:57:47.932Z,10.42
2018-03-28T21:58:47.926Z,10.26
2018-03-28T21:59:47.914Z,10.25
2018-03-28T22:00:47.901Z,10.39
2018-03-28T22:01:47.889Z,10.35
2018-03-28T22:02:47.882Z,10.38
2018-03-28T22:03:47.868Z,10.36
2018-03-28T22:04:47.863Z,10.38
2018-03-28T22:05:47.849Z,10.46
2018-03-28T22:06:47.839Z,10.49
2018-03-28T22:07:47.827Z,10.57
2018-03-28T22:08:47.819Z,10.51
2018-03-28T22:09:47.810Z,10.57
2018-03-28T22:10:47.812Z,10.63
2018-03-28T22:11:47.790Z,10.68
2018-03-28T22:12:47.782Z,10.66
2018-03-28T22:13:47.809Z,10.66
2018-03-28T22:14:47.808Z,10.69
2018-03-28T22:15:47.762Z,10.72
2018-03-28T22:16:47.785Z,10.78
2018-03-28T22:17:47.746Z,10.83
2018-03-28T22:18:47.732Z,10.84
2018-03-28T22:19:47.726Z,10.86
2018-03-28T22:20:47.710Z,10.80
2018-03-28T22:21:47.708Z,10.76
2018-03-28T22:22:47.695Z,10.70
2018-03-28T22:23:47.683Z,10.68
2018-03-28T22:24:47.680Z,10.73
2018-03-28T22:25:47.668Z,10.72
2018-03-28T22:26:47.668Z,10.78
2018-03-28T22:27:47.650Z,10.69
2018-03-28T22:28:47.643Z,10.68
2018-03-28T22:29:47.635Z,10.72
2018-03-28T22:30:47.634Z,10.87
2018-03-28T22:31:47.618Z,10.99
2018-03-28T22:32:47.607Z,10.99
2018-03-28T22:33:47.598Z,10.95
2018-03-28T22:34:47.590Z,10.86
2018-03-28T22:35:47.583Z,10.95
2018-03-28T22:36:47.573Z,11.03
2018-03-28T22:37:47.565Z,10.98
2018-03-28T22:38:47.564Z,10.94
2018-03-28T22:39:47.552Z,10.98
2018-03-28T22:40:47.538Z,11.01
2018-03-28T22:41:47.536Z,10.95
2018-03-28T22:42:47.533Z,10.88
2018-03-28T22:43:47.527Z,10.80
2018-03-28T22:44:47.506Z,10.70
2018-03-28T22:45:47.505Z,10.69
2018-03-28T22:46:47.490Z,10.62
2018-03-28T22:47:47.488Z,10.54
2018-03-28T22:48:47.494Z,10.54
2018-03-28T22:49:47.472Z,10.63
2018-03-28T22:50:47.458Z,10.51
2018-03-28T22:51:47.450Z,10.46
2018-03-28T22:52:47.444Z,10.55
2018-03-28T22:53:47.432Z,10.39
2018-03-28T22:54:47.424Z,10.49
2018-03-28T22:55:47.415Z,10.38
2018-03-28T22:56:47.415Z,10.54
2018-03-28T22:57:47.398Z,10.58
2018-03-28T22:58:47.390Z,10.69
2018-03-28T22:59:47.395Z,10.58
2018-03-28T23:00:47.377Z,10.66
2018-03-28T23:01:47.366Z,10.51
2018-03-28T23:02:47.358Z,10.62
2018-03-28T23:03:47.349Z,10.49
2018-03-28T23:04:47.341Z,10.52
2018-03-28T23:05:47.342Z,10.35
2018-03-28T23:06:47.325Z,10.24
2018-03-28T23:07:47.318Z,10.28
2018-03-28T23:08:47.310Z,10.26
2018-03-28T23:09:47.298Z,10.36
2018-03-28T23:10:47.297Z,10.25
2018-03-28T23:11:47.285Z,10.29
2018-03-28T23:12:47.275Z,10.31
2018-03-28T23:13:47.266Z,10.31
2018-03-28T23:14:47.259Z,10.17
2018-03-28T23:15:47.257Z,10.14
2018-03-28T23:16:47.241Z,10.06
2018-03-28T23:17:47.232Z,10.11
2018-03-28T23:18:47.226Z,10.06
2018-03-28T23:19:47.217Z,10.14
2018-03-28T23:20:47.208Z,10.11
2018-03-28T23:21:47.199Z,10.11
2018-03-28T23:22:47.192Z,10.04
2018-03-28T23:23:47.185Z,10.06
2018-03-28T23:24:47.177Z,10.06
2018-03-28T23:25:47.165Z,10.07
2018-03-28T23:26:47.158Z,10.04
2018-03-28T23:27:47.149Z,9.99
2018-03-28T23:28:47.140Z,10.09
2018-03-28T23:29:47.132Z,10.09
2018-03-28T23:30:47.125Z,10.06
2018-03-28T23:31:47.118Z,9.96
2018-03-28T23:32:47.116Z,9.95
2018-03-28T23:33:47.099Z,9.99
2018-03-28T23:34:47.093Z,9.99
2018-03-28T23:35:47.082Z,9.99
2018-03-28T23:36:47.074Z,10.04
2018-03-28T23:37:47.062Z,9.95
2018-03-28T23:38:47.064Z,10.02
2018-03-28T23:39:47.048Z,10.10
2018-03-28T23:40:47.039Z,10.01
2018-03-28T23:41:47.029Z,9.98
2018-03-28T23:42:47.024Z,9.92
2018-03-28T23:43:47.012Z,9.89
2018-03-28T23:44:47.004Z,9.96
2018-03-28T23:45:46.995Z,9.98
2018-03-28T23:46:46.994Z,9.86
2018-03-28T23:47:46.983Z,9.89
2018-03-28T23:48:46.969Z,9.80
2018-03-28T23:49:46.962Z,9.78
2018-03-28T23:50:46.958Z,9.81
2018-03-28T23:51:46.944Z,9.81
2018-03-28T23:52:46.934Z,9.80
2018-03-28T23:53:46.929Z,9.77
2018-03-28T23:54:46.917Z,9.67
2018-03-28T23:55:46.909Z,9.73
2018-03-28T23:56:46.900Z,9.63
2018-03-28T23:57:46.895Z,9.70
2018-03-28T23:58:46.887Z,9.58
2018-03-28T23:59:46.875Z,9.56
